createdAt,value
2018-07-31T00:00:41.792Z,5.63
2018-07-31T00:03:10.510Z,5.60
2018-07-31T00:05:39.085Z,5.73
2018-07-31T00:08:07.620Z,5.70
2018-07-31T00:10:36.229Z,5.47
2018-07-31T00:13:04.756Z,5.70
2018-07-31T00:15:33.284Z,5.93
2018-07-31T00:18:01.864Z,5.30
2018-07-31T00:20:30.393Z,5.63
2018-07-31T00:22:59.008Z,6.00
2018-07-31T00:25:27.590Z,5.93
2018-07-31T00:27:56.132Z,5.87
2018-07-31T00:30:24.796Z,5.90
2018-07-31T00:32:53.521Z,5.90
2018-07-31T00:35:22.095Z,7.60
2018-07-31T00:37:51.239Z,5.70
2018-07-31T00:40:19.995Z,5.43
2018-07-31T00:42:48.784Z,5.60
2018-07-31T00:45:17.577Z,6.03
2018-07-31T00:47:46.164Z,5.70
2018-07-31T00:50:14.944Z,6.00
2018-07-31T00:52:43.641Z,5.67
2018-07-31T00:55:12.372Z,5.43
2018-07-31T00:57:41.009Z,5.57
2018-07-31T01:00:09.663Z,6.03
2018-07-31T01:02:38.275Z,6.00
2018-07-31T01:05:06.889Z,6.10
2018-07-31T01:07:35.437Z,5.73
2018-07-31T01:10:03.995Z,5.23
2018-07-31T01:12:32.577Z,6.17
2018-07-31T01:15:01.221Z,5.53
2018-07-31T01:17:29.893Z,5.90
2018-07-31T01:19:58.475Z,5.87
2018-07-31T01:22:27.105Z,5.93
2018-07-31T01:24:55.757Z,5.77
2018-07-31T01:27:24.301Z,5.93
2018-07-31T01:29:52.959Z,5.80
2018-07-31T01:32:21.592Z,5.23
2018-07-31T01:34:50.137Z,5.57
2018-07-31T01:37:18.755Z,5.70
2018-07-31T01:39:47.475Z,5.90
2018-07-31T01:42:16.123Z,6.07
2018-07-31T01:44:44.768Z,6.07
2018-07-31T01:47:13.427Z,5.60
2018-07-31T01:49:42.084Z,6.00
2018-07-31T01:52:10.777Z,5.33
2018-07-31T01:54:39.437Z,6.10
2018-07-31T01:57:08.052Z,5.60
2018-07-31T01:59:36.644Z,5.33
2018-07-31T02:02:05.226Z,5.70
2018-07-31T02:04:33.870Z,5.90
2018-07-31T02:07:02.427Z,5.53
2018-07-31T02:09:31.208Z,6.07
2018-07-31T02:11:59.878Z,5.73
2018-07-31T02:14:28.428Z,5.77
2018-07-31T02:16:57.043Z,5.77
2018-07-31T02:19:25.550Z,5.70
2018-07-31T02:21:54.170Z,5.87
2018-07-31T02:24:22.912Z,5.70
2018-07-31T02:26:51.581Z,6.33
2018-07-31T02:29:25.323Z,5.87
2018-07-31T02:31:53.959Z,6.40
2018-07-31T02:34:22.553Z,5.90
2018-07-31T02:36:51.177Z,6.20
2018-07-31T02:39:19.805Z,6.27
2018-07-31T02:41:48.577Z,6.20
2018-07-31T02:44:17.315Z,6.37
2018-07-31T02:46:45.982Z,5.70
2018-07-31T02:49:14.622Z,5.43
2018-07-31T02:51:43.382Z,6.30
2018-07-31T02:54:11.996Z,5.97
2018-07-31T02:56:40.912Z,5.93
2018-07-31T02:59:09.527Z,5.60
2018-07-31T03:01:38.084Z,5.80
2018-07-31T03:04:06.840Z,6.97
2018-07-31T03:06:35.471Z,5.73
2018-07-31T03:27:45.334Z,19.10
2018-07-31T03:30:14.192Z,9.13
2018-07-31T03:32:42.981Z,11.60
2018-07-31T03:35:11.712Z,9.33
2018-07-31T03:37:40.743Z,10.13
2018-07-31T03:40:09.633Z,11.83
2018-07-31T03:42:38.691Z,11.50
2018-07-31T03:45:07.888Z,12.07
2018-07-31T03:47:36.622Z,9.10
2018-07-31T03:50:05.815Z,8.80
2018-07-31T03:52:34.584Z,9.70
2018-07-31T03:55:03.327Z,9.70
2018-07-31T03:57:32.043Z,9.77
2018-07-31T04:00:01.013Z,8.87
2018-07-31T04:02:46.004Z,9.10
2018-07-31T04:05:26.952Z,9.23
2018-07-31T04:08:15.203Z,9.87
2018-07-31T04:11:10.528Z,9.67
2018-07-31T04:17:40.268Z,9.30
2018-07-31T04:20:15.392Z,9.30
2018-07-31T04:22:43.977Z,9.50
2018-07-31T04:25:14.345Z,8.93
2018-07-31T04:27:43.059Z,9.67
2018-07-31T04:30:11.665Z,12.13
2018-07-31T04:32:41.506Z,8.03
2018-07-31T04:35:10.440Z,9.00
2018-07-31T04:37:39.431Z,9.83
2018-07-31T04:40:08.001Z,10.20
2018-07-31T04:42:39.252Z,9.13
2018-07-31T04:45:11.070Z,9.03
2018-07-31T04:47:40.340Z,8.87
2018-07-31T04:50:10.010Z,9.53
2018-07-31T04:52:38.749Z,9.40
2018-07-31T04:55:07.458Z,10.70
2018-07-31T04:57:36.011Z,9.17
2018-07-31T05:00:06.550Z,9.87
2018-07-31T05:02:35.415Z,9.77
2018-07-31T05:05:04.537Z,9.63
2018-07-31T05:07:38.026Z,9.53
2018-07-31T05:10:12.439Z,10.20
2018-07-31T05:12:42.291Z,8.60
2018-07-31T05:15:11.202Z,9.90
2018-07-31T05:17:40.607Z,16.30
2018-07-31T05:20:10.776Z,14.77
2018-07-31T05:22:41.350Z,11.13
2018-07-31T05:25:10.219Z,10.20
2018-07-31T05:27:39.313Z,12.00
2018-07-31T05:30:09.702Z,9.73
2018-07-31T05:32:39.143Z,12.60
2018-07-31T05:35:08.906Z,10.10
2018-07-31T05:37:38.009Z,12.83
2018-07-31T05:40:08.714Z,13.90
2018-07-31T05:42:37.603Z,10.70
2018-07-31T05:45:07.034Z,12.67
2018-07-31T05:47:35.738Z,11.13
2018-07-31T05:50:04.988Z,11.63
2018-07-31T05:52:34.315Z,11.20
2018-07-31T05:55:03.307Z,9.97
2018-07-31T05:57:32.205Z,11.30
2018-07-31T06:00:01.032Z,14.13
2018-07-31T06:02:29.961Z,11.33
2018-07-31T06:04:58.570Z,10.43
2018-07-31T06:07:27.478Z,13.07
2018-07-31T06:09:56.177Z,11.10
2018-07-31T06:12:25.265Z,11.50
2018-07-31T06:14:54.332Z,11.53
2018-07-31T06:17:23.604Z,12.00
2018-07-31T06:19:52.617Z,13.40
2018-07-31T06:22:21.714Z,11.57
2018-07-31T06:24:50.927Z,14.07
2018-07-31T06:27:19.690Z,16.20
2018-07-31T06:29:48.482Z,13.97
2018-07-31T06:32:17.285Z,11.47
2018-07-31T06:34:46.330Z,13.30
2018-07-31T06:37:16.232Z,15.27
2018-07-31T06:39:44.961Z,12.17
2018-07-31T06:42:13.737Z,14.03
2018-07-31T06:44:51.470Z,11.90
2018-07-31T06:47:20.680Z,13.53
2018-07-31T06:49:49.746Z,13.13
2018-07-31T06:52:18.694Z,11.17
2018-07-31T06:54:47.702Z,12.33
2018-07-31T06:57:16.511Z,12.53
2018-07-31T06:59:46.091Z,16.63
2018-07-31T07:02:15.088Z,14.33
2018-07-31T07:04:44.130Z,12.23
2018-07-31T07:07:13.274Z,11.97
2018-07-31T07:09:41.980Z,13.97
2018-07-31T07:12:11.017Z,12.10
2018-07-31T07:14:39.938Z,11.27
2018-07-31T07:17:09.118Z,12.17
2018-07-31T07:19:37.991Z,14.27
2018-07-31T07:22:07.166Z,16.00
2018-07-31T07:24:36.051Z,13.10
2018-07-31T07:27:04.994Z,11.77
2018-07-31T07:29:33.932Z,11.50
2018-07-31T07:32:03.027Z,12.00
2018-07-31T07:34:31.678Z,11.20
2018-07-31T07:37:02.183Z,12.83
2018-07-31T07:39:31.309Z,10.17
2018-07-31T07:42:00.125Z,16.73
2018-07-31T07:44:29.044Z,14.30
2018-07-31T07:46:58.095Z,17.40
2018-07-31T07:49:27.908Z,14.60
2018-07-31T07:51:56.998Z,10.93
2018-07-31T07:54:26.099Z,11.03
2018-07-31T07:56:55.542Z,11.40
2018-07-31T07:59:24.472Z,11.83
2018-07-31T08:01:53.345Z,12.23
2018-07-31T08:04:22.156Z,11.00
2018-07-31T08:06:51.856Z,13.70
2018-07-31T08:09:20.551Z,12.10
2018-07-31T08:11:49.770Z,13.83
2018-07-31T08:14:18.517Z,11.03
2018-07-31T08:16:47.459Z,11.90
2018-07-31T08:19:16.192Z,11.00
2018-07-31T08:21:44.773Z,17.60
2018-07-31T08:24:13.341Z,14.77
2018-07-31T08:26:41.897Z,11.33
2018-07-31T08:29:10.403Z,11.33
2018-07-31T08:31:38.922Z,12.43
2018-07-31T08:34:07.432Z,10.77
2018-07-31T08:36:36.069Z,11.73
2018-07-31T08:39:07.732Z,10.43
2018-07-31T08:41:36.429Z,12.80
2018-07-31T08:44:05.470Z,12.97
2018-07-31T08:46:34.005Z,13.10
2018-07-31T08:49:02.531Z,10.20
2018-07-31T08:51:31.202Z,10.63
2018-07-31T08:54:00.038Z,10.57
2018-07-31T08:56:28.539Z,11.00
2018-07-31T08:58:57.055Z,10.33
2018-07-31T09:01:25.549Z,11.07
2018-07-31T09:03:54.097Z,10.10
2018-07-31T09:06:22.638Z,10.00
2018-07-31T09:08:51.313Z,10.40
2018-07-31T09:11:19.877Z,10.73
2018-07-31T09:13:48.427Z,10.83
2018-07-31T09:16:16.944Z,10.27
2018-07-31T09:18:45.475Z,10.60
2018-07-31T09:21:13.974Z,11.00
2018-07-31T09:23:42.543Z,13.53
2018-07-31T09:26:11.074Z,10.60
2018-07-31T09:28:39.585Z,10.83
2018-07-31T09:31:13.840Z,16.00
2018-07-31T09:33:42.749Z,12.93
2018-07-31T09:36:11.470Z,11.33
2018-07-31T09:38:40.000Z,15.83
2018-07-31T09:41:08.527Z,10.90
2018-07-31T09:43:37.142Z,10.80
2018-07-31T09:46:05.705Z,18.03
2018-07-31T09:48:34.283Z,10.63
2018-07-31T09:51:02.858Z,10.13
2018-07-31T09:53:31.386Z,10.27
2018-07-31T09:56:00.029Z,12.20
2018-07-31T09:58:28.669Z,10.50
2018-07-31T10:01:02.190Z,10.17
2018-07-31T10:03:30.794Z,9.53
2018-07-31T10:05:59.430Z,12.17
2018-07-31T10:08:28.093Z,10.63
2018-07-31T10:10:56.831Z,11.13
2018-07-31T10:13:25.490Z,10.60
2018-07-31T10:15:54.207Z,10.47
2018-07-31T10:18:22.950Z,10.07
2018-07-31T10:20:51.620Z,10.03
2018-07-31T10:23:20.280Z,10.07
2018-07-31T10:25:48.785Z,9.63
2018-07-31T10:28:17.280Z,9.87
2018-07-31T10:30:45.935Z,9.53
2018-07-31T10:33:14.396Z,10.40
2018-07-31T10:35:42.948Z,10.37
2018-07-31T10:38:11.445Z,9.53
2018-07-31T10:40:40.124Z,10.40
2018-07-31T10:43:08.778Z,10.03
2018-07-31T10:45:37.386Z,9.93
2018-07-31T10:48:06.062Z,10.20
2018-07-31T10:50:34.626Z,9.20
2018-07-31T10:53:03.137Z,9.50
2018-07-31T10:55:31.690Z,9.47
2018-07-31T10:58:03.829Z,10.07
2018-07-31T11:00:33.094Z,9.23
2018-07-31T11:03:14.422Z,9.13
2018-07-31T14:34:19.963Z,8.93
2018-07-31T14:43:59.440Z,7.70
2018-07-31T14:46:40.305Z,7.10
2018-07-31T20:36:03.957Z,7.77
2018-07-31T20:38:33.798Z,8.57
2018-07-31T20:41:03.137Z,7.50
2018-07-31T20:43:32.292Z,7.77
2018-07-31T20:46:02.153Z,9.37
2018-07-31T20:48:31.642Z,7.27
2018-07-31T20:51:00.793Z,10.17
2018-07-31T20:53:30.468Z,9.93
2018-07-31T20:55:59.874Z,13.77
2018-07-31T20:58:29.300Z,10.47
2018-07-31T21:00:58.457Z,10.70
2018-07-31T21:03:27.905Z,13.60
2018-07-31T21:05:58.167Z,9.87
2018-07-31T21:08:26.811Z,12.60
2018-07-31T21:10:55.421Z,8.07
2018-07-31T21:13:24.467Z,19.00
2018-07-31T21:15:53.108Z,19.07
2018-07-31T21:18:21.802Z,15.67
2018-07-31T21:20:50.437Z,18.87
2018-07-31T21:23:19.281Z,20.43
2018-07-31T21:25:47.939Z,16.03
2018-07-31T21:28:16.615Z,22.03
2018-07-31T21:30:45.333Z,14.50
2018-07-31T21:33:14.017Z,17.57
2018-07-31T21:35:42.689Z,13.80
2018-07-31T21:38:12.031Z,9.33
2018-07-31T21:40:42.505Z,12.00
2018-07-31T21:43:12.116Z,15.87
2018-07-31T21:45:41.089Z,17.20
2018-07-31T21:48:09.974Z,12.20
2018-07-31T21:50:39.198Z,19.10
2018-07-31T21:53:07.796Z,15.60
2018-07-31T21:55:37.354Z,17.37
2018-07-31T21:58:06.089Z,12.50
2018-07-31T22:00:40.026Z,12.13
2018-07-31T22:03:08.746Z,10.93
2018-07-31T22:05:37.833Z,17.13
2018-07-31T22:08:06.416Z,14.60
2018-07-31T22:10:34.992Z,10.20
2018-07-31T22:13:03.713Z,18.40
2018-07-31T22:15:32.409Z,14.13
2018-07-31T22:18:01.046Z,7.97
2018-07-31T22:20:29.650Z,11.03
2018-07-31T22:22:58.339Z,8.83
2018-07-31T22:25:27.099Z,14.30
2018-07-31T22:27:55.785Z,14.37
2018-07-31T22:30:24.515Z,9.33
2018-07-31T22:32:53.134Z,14.03
2018-07-31T22:35:21.893Z,10.07
2018-07-31T22:37:50.584Z,9.97
2018-07-31T22:40:19.252Z,17.47
2018-07-31T22:42:47.849Z,14.77
2018-07-31T22:45:17.362Z,10.43
2018-07-31T22:47:47.444Z,10.60
2018-07-31T22:50:16.037Z,11.93
2018-07-31T22:52:44.758Z,12.47
2018-07-31T22:55:13.518Z,11.20
2018-07-31T22:57:42.296Z,9.60
2018-07-31T23:00:11.089Z,10.57
2018-07-31T23:02:41.180Z,14.13
2018-07-31T23:05:11.490Z,9.20
2018-07-31T23:07:40.188Z,9.27
2018-07-31T23:10:09.457Z,13.70
2018-07-31T23:12:38.663Z,11.73
2018-07-31T23:15:07.868Z,14.07
2018-07-31T23:17:36.417Z,9.03
2018-07-31T23:20:07.248Z,9.93
2018-07-31T23:22:49.609Z,10.87
2018-07-31T23:25:18.280Z,11.83
2018-07-31T23:27:46.881Z,9.03
2018-07-31T23:30:15.545Z,13.17
2018-07-31T23:32:44.111Z,11.40
2018-07-31T23:35:12.738Z,10.67
2018-07-31T23:37:41.482Z,9.13
2018-07-31T23:40:10.188Z,9.90
2018-07-31T23:42:38.941Z,11.97
2018-07-31T23:45:07.707Z,9.87
2018-07-31T23:47:36.505Z,9.30
2018-07-31T23:50:05.245Z,9.40
2018-07-31T23:52:34.125Z,9.70
2018-07-31T23:55:02.812Z,11.67
2018-07-31T23:57:31.628Z,9.80
